sensor_id;sensor_type;location;lat;lon;timestamp;P1;durP1;ratioP1;P2;durP2;ratioP2
10134;SDS011;5107;48.850;8.924;2023-01-05T00:01:33;0.50;;;0.50;;
10134;SDS011;5107;48.850;8.924;2023-01-05T00:04:01;0.50;;;0.50;;
10134;SDS011;5107;48.850;8.924;2023-01-05T00:06:29;0.70;;;0.50;;
10134;SDS011;5107;48.850;8.924;2023-01-05T00:08:57;0.50;;;0.50;;
10134;SDS011;5107;48.850;8.924;2023-01-05T00:11:29;0.40;;;0.40;;
10134;SDS011;5107;48.850;8.924;2023-01-05T00:14:14;0.57;;;0.57;;
10134;SDS011;5107;48.850;8.924;2023-01-05T00:17:01;0.60;;;0.50;;
10134;SDS011;5107;48.850;8.924;2023-01-05T00:19:49;0.50;;;0.50;;
10134;SDS011;5107;48.850;8.924;2023-01-05T00:22:35;0.43;;;0.43;;
10134;SDS011;5107;48.850;8.924;2023-01-05T00:25:12;0.40;;;0.37;;
10134;SDS011;5107;48.850;8.924;2023-01-05T00:27:50;0.47;;;0.40;;
10134;SDS011;5107;48.850;8.924;2023-01-05T00:30:18;0.30;;;0.30;;
10134;SDS011;5107;48.850;8.924;2023-01-05T00:32:54;5.07;;;3.13;;
10134;SDS011;5107;48.850;8.924;2023-01-05T00:35:22;1.07;;;0.80;;
10134;SDS011;5107;48.850;8.924;2023-01-05T00:37:50;0.73;;;0.30;;
10134;SDS011;5107;48.850;8.924;2023-01-05T00:40:19;0.33;;;0.33;;
10134;SDS011;5107;48.850;8.924;2023-01-05T00:42:56;0.43;;;0.43;;
10134;SDS011;5107;48.850;8.924;2023-01-05T00:45:26;0.43;;;0.43;;
10134;SDS011;5107;48.850;8.924;2023-01-05T00:47:55;0.40;;;0.40;;
10134;SDS011;5107;48.850;8.924;2023-01-05T00:50:22;0.67;;;0.53;;
10134;SDS011;5107;48.850;8.924;2023-01-05T00:52:55;0.30;;;0.30;;
10134;SDS011;5107;48.850;8.924;2023-01-05T00:55:22;0.40;;;0.40;;
10134;SDS011;5107;48.850;8.924;2023-01-05T00:57:49;0.73;;;0.30;;
10134;SDS011;5107;48.850;8.924;2023-01-05T01:00:18;0.17;;;0.17;;
10134;SDS011;5107;48.850;8.924;2023-01-05T01:02:46;0.20;;;0.20;;
10134;SDS011;5107;48.850;8.924;2023-01-05T01:05:16;0.30;;;0.30;;
10134;SDS011;5107;48.850;8.924;2023-01-05T01:07:43;0.40;;;0.40;;
10134;SDS011;5107;48.850;8.924;2023-01-05T01:10:11;0.13;;;0.13;;
10134;SDS011;5107;48.850;8.924;2023-01-05T01:12:38;0.40;;;0.40;;
10134;SDS011;5107;48.850;8.924;2023-01-05T01:15:06;0.20;;;0.20;;
10134;SDS011;5107;48.850;8.924;2023-01-05T01:17:36;0.20;;;0.20;;
10134;SDS011;5107;48.850;8.924;2023-01-05T01:20:03;0.20;;;0.20;;
10134;SDS011;5107;48.850;8.924;2023-01-05T01:22:32;1.03;;;0.20;;
10134;SDS011;5107;48.850;8.924;2023-01-05T01:24:59;0.20;;;0.20;;
10134;SDS011;5107;48.850;8.924;2023-01-05T01:27:26;0.57;;;0.30;;
10134;SDS011;5107;48.850;8.924;2023-01-05T01:29:55;0.30;;;0.30;;
10134;SDS011;5107;48.850;8.924;2023-01-05T01:32:22;0.20;;;0.20;;
10134;SDS011;5107;48.850;8.924;2023-01-05T01:34:51;0.20;;;0.20;;
10134;SDS011;5107;48.850;8.924;2023-01-05T01:37:19;0.20;;;0.20;;
10134;SDS011;5107;48.850;8.924;2023-01-05T01:39:50;0.10;;;0.10;;
10134;SDS011;5107;48.850;8.924;2023-01-05T01:42:17;0.20;;;0.20;;
10134;SDS011;5107;48.850;8.924;2023-01-05T01:44:52;0.20;;;0.20;;
10134;SDS011;5107;48.850;8.924;2023-01-05T01:47:29;0.20;;;0.20;;
10134;SDS011;5107;48.850;8.924;2023-01-05T01:50:06;0.13;;;0.13;;
10134;SDS011;5107;48.850;8.924;2023-01-05T01:52:38;0.20;;;0.20;;
10134;SDS011;5107;48.850;8.924;2023-01-05T01:55:07;0.10;;;0.10;;
10134;SDS011;5107;48.850;8.924;2023-01-05T01:57:36;0.20;;;0.20;;
10134;SDS011;5107;48.850;8.924;2023-01-05T02:00:06;0.10;;;0.10;;
10134;SDS011;5107;48.850;8.924;2023-01-05T02:02:44;0.10;;;0.10;;
10134;SDS011;5107;48.850;8.924;2023-01-05T02:05:20;0.20;;;0.20;;
10134;SDS011;5107;48.850;8.924;2023-01-05T02:07:50;0.10;;;0.10;;
10134;SDS011;5107;48.850;8.924;2023-01-05T02:10:19;0.20;;;0.20;;
10134;SDS011;5107;48.850;8.924;2023-01-05T02:13:01;0.17;;;0.13;;
10134;SDS011;5107;48.850;8.924;2023-01-05T02:15:48;0.20;;;0.20;;
10134;SDS011;5107;48.850;8.924;2023-01-05T02:18:32;0.10;;;0.10;;
10134;SDS011;5107;48.850;8.924;2023-01-05T02:21:19;0.20;;;0.20;;
10134;SDS011;5107;48.850;8.924;2023-01-05T02:36:33;0.20;;;0.20;;
10134;SDS011;5107;48.850;8.924;2023-01-05T02:39:10;0.33;;;0.20;;
10134;SDS011;5107;48.850;8.924;2023-01-05T02:41:44;0.20;;;0.20;;
10134;SDS011;5107;48.850;8.924;2023-01-05T02:44:18;0.47;;;0.30;;
10134;SDS011;5107;48.850;8.924;2023-01-05T02:46:59;0.20;;;0.20;;
10134;SDS011;5107;48.850;8.924;2023-01-05T02:49:28;0.10;;;0.10;;
10134;SDS011;5107;48.850;8.924;2023-01-05T02:52:01;0.30;;;0.30;;
10134;SDS011;5107;48.850;8.924;2023-01-05T02:54:32;0.10;;;0.10;;
10134;SDS011;5107;48.850;8.924;2023-01-05T02:57:04;0.20;;;0.20;;
10134;SDS011;5107;48.850;8.924;2023-01-05T02:59:37;0.17;;;0.17;;
10134;SDS011;5107;48.850;8.924;2023-01-05T03:02:11;0.20;;;0.20;;
10134;SDS011;5107;48.850;8.924;2023-01-05T03:04:43;0.13;;;0.13;;
10134;SDS011;5107;48.850;8.924;2023-01-05T03:07:19;0.20;;;0.20;;
10134;SDS011;5107;48.850;8.924;2023-01-05T03:09:52;0.10;;;0.10;;
10134;SDS011;5107;48.850;8.924;2023-01-05T03:12:21;0.20;;;0.20;;
10134;SDS011;5107;48.850;8.924;2023-01-05T03:15:10;0.20;;;0.20;;
10134;SDS011;5107;48.850;8.924;2023-01-05T03:17:45;0.20;;;0.20;;
10134;SDS011;5107;48.850;8.924;2023-01-05T03:20:17;0.20;;;0.20;;
10134;SDS011;5107;48.850;8.924;2023-01-05T03:22:47;0.10;;;0.10;;
10134;SDS011;5107;48.850;8.924;2023-01-05T03:25:36;0.10;;;0.10;;
10134;SDS011;5107;48.850;8.924;2023-01-05T03:28:23;0.10;;;0.10;;
10134;SDS011;5107;48.850;8.924;2023-01-05T03:31:16;0.50;;;0.20;;
10134;SDS011;5107;48.850;8.924;2023-01-05T03:34:10;0.10;;;0.10;;
10134;SDS011;5107;48.850;8.924;2023-01-05T03:37:01;0.20;;;0.20;;
10134;SDS011;5107;48.850;8.924;2023-01-05T03:39:33;0.10;;;0.10;;
10134;SDS011;5107;48.850;8.924;2023-01-05T03:42:04;0.10;;;0.10;;
10134;SDS011;5107;48.850;8.924;2023-01-05T03:44:34;0.40;;;0.20;;
10134;SDS011;5107;48.850;8.924;2023-01-05T03:47:03;0.27;;;0.20;;
10134;SDS011;5107;48.850;8.924;2023-01-05T03:49:33;0.13;;;0.13;;
10134;SDS011;5107;48.850;8.924;2023-01-05T03:52:01;0.23;;;0.20;;
10134;SDS011;5107;48.850;8.924;2023-01-05T03:54:28;0.10;;;0.10;;
10134;SDS011;5107;48.850;8.924;2023-01-05T03:56:55;0.10;;;0.10;;
10134;SDS011;5107;48.850;8.924;2023-01-05T03:59:22;0.10;;;0.10;;
10134;SDS011;5107;48.850;8.924;2023-01-05T04:01:50;0.40;;;0.17;;
10134;SDS011;5107;48.850;8.924;2023-01-05T04:04:17;0.20;;;0.20;;
10134;SDS011;5107;48.850;8.924;2023-01-05T04:06:46;0.87;;;0.20;;
10134;SDS011;5107;48.850;8.924;2023-01-05T04:09:14;0.10;;;0.10;;
10134;SDS011;5107;48.850;8.924;2023-01-05T04:11:43;0.10;;;0.10;;
10134;SDS011;5107;48.850;8.924;2023-01-05T04:14:11;0.10;;;0.10;;
10134;SDS011;5107;48.850;8.924;2023-01-05T04:16:38;0.17;;;0.17;;
10134;SDS011;5107;48.850;8.924;2023-01-05T04:19:12;0.10;;;0.10;;
10134;SDS011;5107;48.850;8.924;2023-01-05T04:21:40;0.10;;;0.10;;
10134;SDS011;5107;48.850;8.924;2023-01-05T04:24:10;0.20;;;0.20;;
10134;SDS011;5107;48.850;8.924;2023-01-05T04:26:41;0.10;;;0.10;;
10134;SDS011;5107;48.850;8.924;2023-01-05T04:29:09;0.10;;;0.10;;
10134;SDS011;5107;48.850;8.924;2023-01-05T04:31:37;0.10;;;0.10;;
10134;SDS011;5107;48.850;8.924;2023-01-05T04:34:05;0.10;;;0.10;;
10134;SDS011;5107;48.850;8.924;2023-01-05T04:36:33;0.10;;;0.10;;
10134;SDS011;5107;48.850;8.924;2023-01-05T04:39:01;0.10;;;0.10;;
10134;SDS011;5107;48.850;8.924;2023-01-05T04:41:30;0.20;;;0.20;;
10134;SDS011;5107;48.850;8.924;2023-01-05T04:43:58;0.00;;;0.00;;
10134;SDS011;5107;48.850;8.924;2023-01-05T04:46:26;0.10;;;0.10;;
10134;SDS011;5107;48.850;8.924;2023-01-05T04:48:55;0.20;;;0.20;;
10134;SDS011;5107;48.850;8.924;2023-01-05T04:51:23;0.20;;;0.20;;
10134;SDS011;5107;48.850;8.924;2023-01-05T04:53:51;1.20;;;0.10;;
10134;SDS011;5107;48.850;8.924;2023-01-05T04:56:21;0.20;;;0.20;;
10134;SDS011;5107;48.850;8.924;2023-01-05T04:58:50;0.20;;;0.20;;
10134;SDS011;5107;48.850;8.924;2023-01-05T05:01:17;0.10;;;0.10;;
10134;SDS011;5107;48.850;8.924;2023-01-05T05:03:49;0.10;;;0.10;;
10134;SDS011;5107;48.850;8.924;2023-01-05T05:06:18;0.10;;;0.10;;
10134;SDS011;5107;48.850;8.924;2023-01-05T05:08:48;0.30;;;0.30;;
10134;SDS011;5107;48.850;8.924;2023-01-05T05:11:16;0.10;;;0.10;;
10134;SDS011;5107;48.850;8.924;2023-01-05T05:13:45;0.20;;;0.20;;
10134;SDS011;5107;48.850;8.924;2023-01-05T05:16:14;0.17;;;0.17;;
10134;SDS011;5107;48.850;8.924;2023-01-05T05:18:45;0.20;;;0.20;;
10134;SDS011;5107;48.850;8.924;2023-01-05T05:21:17;0.10;;;0.10;;
10134;SDS011;5107;48.850;8.924;2023-01-05T05:23:44;0.10;;;0.10;;
10134;SDS011;5107;48.850;8.924;2023-01-05T05:26:12;0.20;;;0.20;;
10134;SDS011;5107;48.850;8.924;2023-01-05T05:28:43;0.10;;;0.10;;
10134;SDS011;5107;48.850;8.924;2023-01-05T05:31:10;0.10;;;0.10;;
10134;SDS011;5107;48.850;8.924;2023-01-05T05:33:38;0.20;;;0.20;;
10134;SDS011;5107;48.850;8.924;2023-01-05T05:36:06;1.60;;;0.30;;
10134;SDS011;5107;48.850;8.924;2023-01-05T05:38:34;0.20;;;0.20;;
10134;SDS011;5107;48.850;8.924;2023-01-05T05:41:01;0.70;;;0.30;;
10134;SDS011;5107;48.850;8.924;2023-01-05T05:43:28;2.50;;;0.70;;
10134;SDS011;5107;48.850;8.924;2023-01-05T05:45:55;0.63;;;0.60;;
10134;SDS011;5107;48.850;8.924;2023-01-05T05:48:22;0.80;;;0.47;;
10134;SDS011;5107;48.850;8.924;2023-01-05T05:50:50;1.43;;;0.83;;
10134;SDS011;5107;48.850;8.924;2023-01-05T05:53:17;2.70;;;0.70;;
10134;SDS011;5107;48.850;8.924;2023-01-05T05:55:46;2.83;;;0.70;;
10134;SDS011;5107;48.850;8.924;2023-01-05T05:58:14;2.27;;;0.60;;
10134;SDS011;5107;48.850;8.924;2023-01-05T06:00:41;1.87;;;0.90;;
10134;SDS011;5107;48.850;8.924;2023-01-05T06:03:08;0.80;;;0.70;;
10134;SDS011;5107;48.850;8.924;2023-01-05T06:05:35;1.70;;;1.00;;
10134;SDS011;5107;48.850;8.924;2023-01-05T06:08:04;1.33;;;0.80;;
10134;SDS011;5107;48.850;8.924;2023-01-05T06:10:31;2.33;;;0.80;;
10134;SDS011;5107;48.850;8.924;2023-01-05T06:12:58;1.47;;;0.73;;
10134;SDS011;5107;48.850;8.924;2023-01-05T06:15:25;1.80;;;1.00;;
10134;SDS011;5107;48.850;8.924;2023-01-05T06:17:52;2.33;;;1.10;;
10134;SDS011;5107;48.850;8.924;2023-01-05T06:20:19;3.73;;;1.17;;
10134;SDS011;5107;48.850;8.924;2023-01-05T06:22:46;3.83;;;1.57;;
10134;SDS011;5107;48.850;8.924;2023-01-05T06:25:14;2.33;;;1.30;;
10134;SDS011;5107;48.850;8.924;2023-01-05T06:27:41;2.37;;;1.07;;
10134;SDS011;5107;48.850;8.924;2023-01-05T06:30:09;2.90;;;1.03;;
10134;SDS011;5107;48.850;8.924;2023-01-05T06:32:37;2.00;;;1.30;;
10134;SDS011;5107;48.850;8.924;2023-01-05T06:35:04;1.60;;;1.07;;
10134;SDS011;5107;48.850;8.924;2023-01-05T06:37:32;1.63;;;1.17;;
10134;SDS011;5107;48.850;8.924;2023-01-05T06:39:59;2.50;;;1.30;;
10134;SDS011;5107;48.850;8.924;2023-01-05T06:42:27;1.40;;;1.30;;
10134;SDS011;5107;48.850;8.924;2023-01-05T06:44:54;2.77;;;1.47;;
10134;SDS011;5107;48.850;8.924;2023-01-05T06:47:21;4.63;;;1.53;;
10134;SDS011;5107;48.850;8.924;2023-01-05T06:49:48;3.40;;;1.70;;
10134;SDS011;5107;48.850;8.924;2023-01-05T06:52:15;6.90;;;1.80;;
10134;SDS011;5107;48.850;8.924;2023-01-05T06:54:42;3.47;;;1.80;;
10134;SDS011;5107;48.850;8.924;2023-01-05T06:57:10;2.10;;;1.53;;
10134;SDS011;5107;48.850;8.924;2023-01-05T06:59:38;6.50;;;1.80;;
10134;SDS011;5107;48.850;8.924;2023-01-05T07:02:07;2.33;;;1.40;;
10134;SDS011;5107;48.850;8.924;2023-01-05T07:04:39;5.83;;;1.80;;
10134;SDS011;5107;48.850;8.924;2023-01-05T07:07:07;9.90;;;5.87;;
10134;SDS011;5107;48.850;8.924;2023-01-05T07:09:36;10.23;;;7.20;;
10134;SDS011;5107;48.850;8.924;2023-01-05T07:12:03;3.67;;;2.17;;
10134;SDS011;5107;48.850;8.924;2023-01-05T07:14:31;6.40;;;3.73;;
10134;SDS011;5107;48.850;8.924;2023-01-05T07:16:59;4.37;;;2.60;;
10134;SDS011;5107;48.850;8.924;2023-01-05T07:19:26;3.70;;;1.57;;
10134;SDS011;5107;48.850;8.924;2023-01-05T07:21:53;2.93;;;1.40;;
10134;SDS011;5107;48.850;8.924;2023-01-05T07:24:20;3.57;;;1.53;;
10134;SDS011;5107;48.850;8.924;2023-01-05T07:26:47;5.73;;;1.70;;
10134;SDS011;5107;48.850;8.924;2023-01-05T07:29:15;3.73;;;1.50;;
10134;SDS011;5107;48.850;8.924;2023-01-05T07:31:42;1.73;;;1.50;;
10134;SDS011;5107;48.850;8.924;2023-01-05T07:34:12;5.07;;;1.50;;
10134;SDS011;5107;48.850;8.924;2023-01-05T07:36:40;2.57;;;1.63;;
10134;SDS011;5107;48.850;8.924;2023-01-05T07:39:06;8.67;;;1.60;;
10134;SDS011;5107;48.850;8.924;2023-01-05T07:41:33;4.43;;;1.57;;
10134;SDS011;5107;48.850;8.924;2023-01-05T07:44:01;3.37;;;1.20;;
10134;SDS011;5107;48.850;8.924;2023-01-05T07:46:28;2.03;;;1.27;;
10134;SDS011;5107;48.850;8.924;2023-01-05T07:48:55;2.63;;;1.77;;
10134;SDS011;5107;48.850;8.924;2023-01-05T07:51:24;3.03;;;1.43;;
10134;SDS011;5107;48.850;8.924;2023-01-05T07:53:51;5.03;;;1.80;;
10134;SDS011;5107;48.850;8.924;2023-01-05T07:56:19;4.00;;;1.53;;
10134;SDS011;5107;48.850;8.924;2023-01-05T07:58:47;2.90;;;1.50;;
10134;SDS011;5107;48.850;8.924;2023-01-05T08:01:14;2.90;;;1.70;;
10134;SDS011;5107;48.850;8.924;2023-01-05T08:03:42;4.27;;;1.43;;
10134;SDS011;5107;48.850;8.924;2023-01-05T08:06:11;3.97;;;1.70;;
10134;SDS011;5107;48.850;8.924;2023-01-05T08:08:42;7.20;;;1.50;;
10134;SDS011;5107;48.850;8.924;2023-01-05T08:11:11;4.90;;;1.27;;
10134;SDS011;5107;48.850;8.924;2023-01-05T08:13:40;2.47;;;1.30;;
10134;SDS011;5107;48.850;8.924;2023-01-05T08:16:27;4.93;;;1.70;;
10134;SDS011;5107;48.850;8.924;2023-01-05T08:18:55;5.97;;;1.80;;
10134;SDS011;5107;48.850;8.924;2023-01-05T08:21:23;3.97;;;1.83;;
10134;SDS011;5107;48.850;8.924;2023-01-05T08:23:52;3.17;;;1.60;;
10134;SDS011;5107;48.850;8.924;2023-01-05T08:26:20;39.90;;;19.90;;
10134;SDS011;5107;48.850;8.924;2023-01-05T08:28:48;8.33;;;3.80;;
10134;SDS011;5107;48.850;8.924;2023-01-05T08:31:18;3.43;;;1.67;;
10134;SDS011;5107;48.850;8.924;2023-01-05T08:33:48;3.93;;;1.70;;
10134;SDS011;5107;48.850;8.924;2023-01-05T08:36:16;3.50;;;1.67;;
10134;SDS011;5107;48.850;8.924;2023-01-05T08:38:45;4.67;;;1.87;;
10134;SDS011;5107;48.850;8.924;2023-01-05T08:41:17;5.03;;;1.53;;
10134;SDS011;5107;48.850;8.924;2023-01-05T08:43:48;4.37;;;1.73;;
10134;SDS011;5107;48.850;8.924;2023-01-05T08:46:16;5.73;;;1.80;;
10134;SDS011;5107;48.850;8.924;2023-01-05T08:48:46;5.67;;;1.60;;
10134;SDS011;5107;48.850;8.924;2023-01-05T08:51:14;6.63;;;1.73;;
10134;SDS011;5107;48.850;8.924;2023-01-05T08:53:42;8.27;;;1.43;;
10134;SDS011;5107;48.850;8.924;2023-01-05T08:56:09;3.40;;;1.50;;
10134;SDS011;5107;48.850;8.924;2023-01-05T08:58:38;5.73;;;1.63;;
10134;SDS011;5107;48.850;8.924;2023-01-05T09:01:06;6.93;;;2.40;;
10134;SDS011;5107;48.850;8.924;2023-01-05T09:03:33;6.50;;;1.53;;
10134;SDS011;5107;48.850;8.924;2023-01-05T09:06:01;8.30;;;1.60;;
10134;SDS011;5107;48.850;8.924;2023-01-05T09:08:30;5.27;;;1.50;;
10134;SDS011;5107;48.850;8.924;2023-01-05T09:11:04;9.10;;;1.93;;
10134;SDS011;5107;48.850;8.924;2023-01-05T09:13:32;5.03;;;1.80;;
10134;SDS011;5107;48.850;8.924;2023-01-05T09:16:04;8.97;;;2.07;;
10134;SDS011;5107;48.850;8.924;2023-01-05T09:18:33;10.03;;;2.30;;
10134;SDS011;5107;48.850;8.924;2023-01-05T09:21:00;5.43;;;1.70;;
10134;SDS011;5107;48.850;8.924;2023-01-05T09:23:28;6.17;;;1.70;;
10134;SDS011;5107;48.850;8.924;2023-01-05T09:25:55;7.60;;;2.30;;
10134;SDS011;5107;48.850;8.924;2023-01-05T09:28:22;5.40;;;1.80;;
10134;SDS011;5107;48.850;8.924;2023-01-05T09:30:49;10.73;;;2.73;;
10134;SDS011;5107;48.850;8.924;2023-01-05T09:33:18;3.93;;;1.60;;
10134;SDS011;5107;48.850;8.924;2023-01-05T09:35:51;5.47;;;1.70;;
10134;SDS011;5107;48.850;8.924;2023-01-05T09:38:20;8.07;;;2.07;;
10134;SDS011;5107;48.850;8.924;2023-01-05T09:40:47;5.00;;;1.40;;
10134;SDS011;5107;48.850;8.924;2023-01-05T09:43:17;7.27;;;1.97;;
10134;SDS011;5107;48.850;8.924;2023-01-05T09:45:49;8.53;;;2.10;;
10134;SDS011;5107;48.850;8.924;2023-01-05T09:48:17;4.07;;;1.43;;
10134;SDS011;5107;48.850;8.924;2023-01-05T09:50:46;7.23;;;2.17;;
10134;SDS011;5107;48.850;8.924;2023-01-05T09:53:17;8.63;;;2.40;;
10134;SDS011;5107;48.850;8.924;2023-01-05T09:55:51;7.03;;;2.13;;
10134;SDS011;5107;48.850;8.924;2023-01-05T09:58:19;9.17;;;2.20;;
10134;SDS011;5107;48.850;8.924;2023-01-05T10:00:53;8.33;;;2.10;;
10134;SDS011;5107;48.850;8.924;2023-01-05T10:03:36;8.60;;;2.13;;
10134;SDS011;5107;48.850;8.924;2023-01-05T10:06:10;10.80;;;2.20;;
10134;SDS011;5107;48.850;8.924;2023-01-05T10:08:39;6.33;;;2.03;;
10134;SDS011;5107;48.850;8.924;2023-01-05T10:11:11;10.97;;;2.33;;
10134;SDS011;5107;48.850;8.924;2023-01-05T10:14:01;9.33;;;2.10;;
10134;SDS011;5107;48.850;8.924;2023-01-05T10:16:36;4.87;;;1.37;;
10134;SDS011;5107;48.850;8.924;2023-01-05T10:19:07;4.17;;;2.20;;
10134;SDS011;5107;48.850;8.924;2023-01-05T10:21:40;6.37;;;1.93;;
10134;SDS011;5107;48.850;8.924;2023-01-05T10:24:25;10.17;;;2.40;;
10134;SDS011;5107;48.850;8.924;2023-01-05T10:27:05;9.97;;;2.53;;
10134;SDS011;5107;48.850;8.924;2023-01-05T10:29:40;5.40;;;2.07;;
10134;SDS011;5107;48.850;8.924;2023-01-05T10:32:15;7.60;;;2.17;;
10134;SDS011;5107;48.850;8.924;2023-01-05T10:34:56;10.23;;;2.50;;
10134;SDS011;5107;48.850;8.924;2023-01-05T10:37:32;9.10;;;2.13;;
10134;SDS011;5107;48.850;8.924;2023-01-05T10:40:25;8.73;;;2.00;;
10134;SDS011;5107;48.850;8.924;2023-01-05T10:43:10;7.43;;;2.27;;
10134;SDS011;5107;48.850;8.924;2023-01-05T10:45:51;7.87;;;1.97;;
10134;SDS011;5107;48.850;8.924;2023-01-05T10:48:18;8.80;;;2.10;;
10134;SDS011;5107;48.850;8.924;2023-01-05T10:51:00;8.50;;;2.37;;
10134;SDS011;5107;48.850;8.924;2023-01-05T10:53:29;7.03;;;2.07;;
10134;SDS011;5107;48.850;8.924;2023-01-05T10:56:01;8.83;;;2.27;;
10134;SDS011;5107;48.850;8.924;2023-01-05T10:58:32;8.70;;;2.37;;
10134;SDS011;5107;48.850;8.924;2023-01-05T11:01:02;9.77;;;2.40;;
10134;SDS011;5107;48.850;8.924;2023-01-05T11:03:40;9.17;;;2.10;;
10134;SDS011;5107;48.850;8.924;2023-01-05T11:06:18;8.70;;;2.37;;
10134;SDS011;5107;48.850;8.924;2023-01-05T11:08:47;6.77;;;2.20;;
10134;SDS011;5107;48.850;8.924;2023-01-05T11:11:19;8.57;;;2.30;;
10134;SDS011;5107;48.850;8.924;2023-01-05T11:13:49;12.10;;;2.33;;
10134;SDS011;5107;48.850;8.924;2023-01-05T11:16:21;11.40;;;2.47;;
10134;SDS011;5107;48.850;8.924;2023-01-05T11:18:52;8.83;;;2.57;;
10134;SDS011;5107;48.850;8.924;2023-01-05T11:21:24;10.73;;;2.37;;
10134;SDS011;5107;48.850;8.924;2023-01-05T11:23:53;8.63;;;2.40;;
10134;SDS011;5107;48.850;8.924;2023-01-05T11:26:23;8.57;;;2.33;;
10134;SDS011;5107;48.850;8.924;2023-01-05T11:29:00;9.07;;;2.30;;
10134;SDS011;5107;48.850;8.924;2023-01-05T11:31:40;10.57;;;2.70;;
10134;SDS011;5107;48.850;8.924;2023-01-05T11:34:28;6.30;;;2.07;;
10134;SDS011;5107;48.850;8.924;2023-01-05T11:37:03;8.70;;;1.90;;
10134;SDS011;5107;48.850;8.924;2023-01-05T11:39:33;8.67;;;2.07;;
10134;SDS011;5107;48.850;8.924;2023-01-05T11:42:13;6.37;;;2.53;;
10134;SDS011;5107;48.850;8.924;2023-01-05T11:44:45;18.27;;;7.83;;
10134;SDS011;5107;48.850;8.924;2023-01-05T11:47:20;9.40;;;1.93;;
10134;SDS011;5107;48.850;8.924;2023-01-05T11:49:58;9.83;;;2.40;;
10134;SDS011;5107;48.850;8.924;2023-01-05T11:52:33;8.23;;;2.10;;
10134;SDS011;5107;48.850;8.924;2023-01-05T11:55:21;10.63;;;2.23;;
10134;SDS011;5107;48.850;8.924;2023-01-05T11:58:14;8.07;;;2.47;;
10134;SDS011;5107;48.850;8.924;2023-01-05T12:01:02;9.23;;;2.70;;
10134;SDS011;5107;48.850;8.924;2023-01-05T12:04:33;13.50;;;2.17;;
10134;SDS011;5107;48.850;8.924;2023-01-05T12:07:29;10.73;;;2.27;;
10134;SDS011;5107;48.850;8.924;2023-01-05T12:10:09;5.13;;;1.60;;
10134;SDS011;5107;48.850;8.924;2023-01-05T12:12:56;15.70;;;5.50;;
10134;SDS011;5107;48.850;8.924;2023-01-05T12:15:45;7.93;;;2.67;;
10134;SDS011;5107;48.850;8.924;2023-01-05T12:18:28;7.10;;;2.03;;
10134;SDS011;5107;48.850;8.924;2023-01-05T12:21:29;12.17;;;2.57;;
10134;SDS011;5107;48.850;8.924;2023-01-05T12:27:24;7.27;;;1.80;;
10134;SDS011;5107;48.850;8.924;2023-01-05T12:30:13;8.73;;;2.37;;
10134;SDS011;5107;48.850;8.924;2023-01-05T12:32:57;6.97;;;2.10;;
10134;SDS011;5107;48.850;8.924;2023-01-05T12:36:08;11.37;;;2.83;;
10134;SDS011;5107;48.850;8.924;2023-01-05T12:39:01;9.00;;;2.40;;
10134;SDS011;5107;48.850;8.924;2023-01-05T12:42:05;19.00;;;8.67;;
10134;SDS011;5107;48.850;8.924;2023-01-05T12:44:53;9.97;;;2.40;;
10134;SDS011;5107;48.850;8.924;2023-01-05T12:47:41;10.53;;;2.23;;
10134;SDS011;5107;48.850;8.924;2023-01-05T12:50:20;7.47;;;2.10;;
10134;SDS011;5107;48.850;8.924;2023-01-05T12:52:53;6.47;;;1.93;;
10134;SDS011;5107;48.850;8.924;2023-01-05T12:55:27;10.93;;;2.83;;
10134;SDS011;5107;48.850;8.924;2023-01-05T12:58:03;12.27;;;2.23;;
10134;SDS011;5107;48.850;8.924;2023-01-05T13:00:36;8.17;;;2.00;;
10134;SDS011;5107;48.850;8.924;2023-01-05T13:03:10;10.63;;;2.20;;
10134;SDS011;5107;48.850;8.924;2023-01-05T13:05:45;9.20;;;2.50;;
10134;SDS011;5107;48.850;8.924;2023-01-05T13:08:23;13.63;;;2.27;;
10134;SDS011;5107;48.850;8.924;2023-01-05T13:10:59;6.63;;;2.10;;
10134;SDS011;5107;48.850;8.924;2023-01-05T13:13:33;10.70;;;2.47;;
10134;SDS011;5107;48.850;8.924;2023-01-05T13:16:04;7.67;;;2.27;;
10134;SDS011;5107;48.850;8.924;2023-01-05T13:18:41;11.40;;;2.20;;
10134;SDS011;5107;48.850;8.924;2023-01-05T13:21:14;8.17;;;1.90;;
10134;SDS011;5107;48.850;8.924;2023-01-05T13:23:42;9.73;;;2.60;;
10134;SDS011;5107;48.850;8.924;2023-01-05T13:26:14;10.07;;;2.53;;
10134;SDS011;5107;48.850;8.924;2023-01-05T13:28:46;6.53;;;2.10;;
10134;SDS011;5107;48.850;8.924;2023-01-05T13:34:35;10.17;;;2.70;;
10134;SDS011;5107;48.850;8.924;2023-01-05T13:41:06;10.10;;;2.40;;
10134;SDS011;5107;48.850;8.924;2023-01-05T13:47:14;5.40;;;1.80;;
10134;SDS011;5107;48.850;8.924;2023-01-05T13:50:06;11.37;;;2.87;;
10134;SDS011;5107;48.850;8.924;2023-01-05T13:53:03;11.40;;;2.40;;
10134;SDS011;5107;48.850;8.924;2023-01-05T13:55:39;11.00;;;3.10;;
10134;SDS011;5107;48.850;8.924;2023-01-05T13:58:24;11.97;;;2.43;;
10134;SDS011;5107;48.850;8.924;2023-01-05T14:01:02;10.73;;;2.60;;
10134;SDS011;5107;48.850;8.924;2023-01-05T14:03:34;9.53;;;2.70;;
10134;SDS011;5107;48.850;8.924;2023-01-05T14:06:05;8.67;;;3.10;;
10134;SDS011;5107;48.850;8.924;2023-01-05T14:08:45;6.70;;;2.40;;
10134;SDS011;5107;48.850;8.924;2023-01-05T14:11:19;7.83;;;3.30;;
10134;SDS011;5107;48.850;8.924;2023-01-05T14:13:49;10.90;;;2.30;;
10134;SDS011;5107;48.850;8.924;2023-01-05T14:19:24;10.17;;;2.70;;
10134;SDS011;5107;48.850;8.924;2023-01-05T14:28:29;16.03;;;6.43;;
10134;SDS011;5107;48.850;8.924;2023-01-05T14:34:15;9.73;;;2.60;;
10134;SDS011;5107;48.850;8.924;2023-01-05T14:36:51;7.10;;;2.33;;
10134;SDS011;5107;48.850;8.924;2023-01-05T14:39:30;8.63;;;2.47;;
10134;SDS011;5107;48.850;8.924;2023-01-05T14:42:12;10.37;;;2.70;;
10134;SDS011;5107;48.850;8.924;2023-01-05T14:44:46;23.47;;;9.83;;
10134;SDS011;5107;48.850;8.924;2023-01-05T14:47:31;9.73;;;2.37;;
10134;SDS011;5107;48.850;8.924;2023-01-05T14:50:05;6.33;;;2.23;;
10134;SDS011;5107;48.850;8.924;2023-01-05T14:52:54;30.60;;;12.70;;
10134;SDS011;5107;48.850;8.924;2023-01-05T14:55:25;13.93;;;2.83;;
10134;SDS011;5107;48.850;8.924;2023-01-05T14:57:56;7.53;;;2.00;;
10134;SDS011;5107;48.850;8.924;2023-01-05T15:00:35;7.13;;;2.47;;
10134;SDS011;5107;48.850;8.924;2023-01-05T15:03:11;7.33;;;2.27;;
10134;SDS011;5107;48.850;8.924;2023-01-05T15:05:55;10.73;;;2.50;;
10134;SDS011;5107;48.850;8.924;2023-01-05T15:15:06;11.50;;;3.00;;
10134;SDS011;5107;48.850;8.924;2023-01-05T15:18:04;9.90;;;2.17;;
10134;SDS011;5107;48.850;8.924;2023-01-05T15:21:41;7.07;;;2.20;;
10134;SDS011;5107;48.850;8.924;2023-01-05T15:27:35;7.43;;;2.03;;
10134;SDS011;5107;48.850;8.924;2023-01-05T15:30:23;9.17;;;2.30;;
10134;SDS011;5107;48.850;8.924;2023-01-05T15:33:15;7.60;;;2.13;;
10134;SDS011;5107;48.850;8.924;2023-01-05T15:35:54;5.87;;;2.10;;
10134;SDS011;5107;48.850;8.924;2023-01-05T15:38:27;6.20;;;2.23;;
10134;SDS011;5107;48.850;8.924;2023-01-05T15:40:58;10.13;;;2.60;;
10134;SDS011;5107;48.850;8.924;2023-01-05T15:43:30;9.07;;;2.60;;
10134;SDS011;5107;48.850;8.924;2023-01-05T15:45:58;18.27;;;7.80;;
10134;SDS011;5107;48.850;8.924;2023-01-05T15:48:26;6.90;;;2.83;;
10134;SDS011;5107;48.850;8.924;2023-01-05T15:50:59;4.77;;;1.90;;
10134;SDS011;5107;48.850;8.924;2023-01-05T15:53:30;11.70;;;2.50;;
10134;SDS011;5107;48.850;8.924;2023-01-05T15:56:00;7.03;;;2.00;;
10134;SDS011;5107;48.850;8.924;2023-01-05T15:58:29;9.90;;;2.60;;
10134;SDS011;5107;48.850;8.924;2023-01-05T16:00:59;7.30;;;2.33;;
10134;SDS011;5107;48.850;8.924;2023-01-05T16:03:32;8.10;;;2.33;;
10134;SDS011;5107;48.850;8.924;2023-01-05T16:06:02;8.23;;;2.20;;
10134;SDS011;5107;48.850;8.924;2023-01-05T16:08:35;8.77;;;2.00;;
10134;SDS011;5107;48.850;8.924;2023-01-05T16:11:07;5.70;;;2.00;;
10134;SDS011;5107;48.850;8.924;2023-01-05T16:13:38;9.97;;;2.17;;
10134;SDS011;5107;48.850;8.924;2023-01-05T16:16:10;5.50;;;1.83;;
10134;SDS011;5107;48.850;8.924;2023-01-05T16:18:45;7.53;;;2.33;;
10134;SDS011;5107;48.850;8.924;2023-01-05T16:21:19;7.20;;;1.73;;
10134;SDS011;5107;48.850;8.924;2023-01-05T16:23:55;6.30;;;2.00;;
10134;SDS011;5107;48.850;8.924;2023-01-05T16:26:28;27.43;;;11.13;;